sensor_id;sensor_type;location;lat;lon;timestamp;P1;durP1;ratioP1;P2;durP2;ratioP2
10056;SDS011;5068;51.286;7.518;2023-04-25T00:01:17;1.73;;;0.95;;
10056;SDS011;5068;51.286;7.518;2023-04-25T00:02:51;2.50;;;0.82;;
10056;SDS011;5068;51.286;7.518;2023-04-25T00:04:24;3.95;;;1.00;;
10056;SDS011;5068;51.286;7.518;2023-04-25T00:05:59;2.28;;;1.05;;
10056;SDS011;5068;51.286;7.518;2023-04-25T00:07:33;2.83;;;1.10;;
10056;SDS011;5068;51.286;7.518;2023-04-25T00:09:06;3.15;;;1.13;;
10056;SDS011;5068;51.286;7.518;2023-04-25T00:10:40;2.58;;;1.10;;
10056;SDS011;5068;51.286;7.518;2023-04-25T00:12:13;3.80;;;1.10;;
10056;SDS011;5068;51.286;7.518;2023-04-25T00:13:48;3.42;;;1.10;;
10056;SDS011;5068;51.286;7.518;2023-04-25T00:15:22;2.67;;;1.42;;
10056;SDS011;5068;51.286;7.518;2023-04-25T00:16:55;2.70;;;0.93;;
10056;SDS011;5068;51.286;7.518;2023-04-25T00:18:29;2.30;;;1.00;;
10056;SDS011;5068;51.286;7.518;2023-04-25T00:20:05;3.03;;;1.38;;
10056;SDS011;5068;51.286;7.518;2023-04-25T00:21:40;2.33;;;1.15;;
10056;SDS011;5068;51.286;7.518;2023-04-25T00:23:14;3.25;;;1.20;;
10056;SDS011;5068;51.286;7.518;2023-04-25T00:24:49;2.30;;;0.88;;
10056;SDS011;5068;51.286;7.518;2023-04-25T00:26:24;2.67;;;1.10;;
10056;SDS011;5068;51.286;7.518;2023-04-25T00:27:58;2.50;;;1.17;;
10056;SDS011;5068;51.286;7.518;2023-04-25T00:29:32;2.33;;;0.80;;
10056;SDS011;5068;51.286;7.518;2023-04-25T00:31:05;2.80;;;1.50;;
10056;SDS011;5068;51.286;7.518;2023-04-25T00:32:39;2.90;;;1.25;;
10056;SDS011;5068;51.286;7.518;2023-04-25T00:34:12;3.50;;;0.85;;
10056;SDS011;5068;51.286;7.518;2023-04-25T00:35:45;3.10;;;1.30;;
10056;SDS011;5068;51.286;7.518;2023-04-25T00:37:18;2.67;;;1.10;;
10056;SDS011;5068;51.286;7.518;2023-04-25T00:38:51;3.03;;;1.73;;
10056;SDS011;5068;51.286;7.518;2023-04-25T00:40:26;4.20;;;1.15;;
10056;SDS011;5068;51.286;7.518;2023-04-25T00:42:00;3.15;;;1.25;;
10056;SDS011;5068;51.286;7.518;2023-04-25T00:43:34;3.30;;;1.10;;
10056;SDS011;5068;51.286;7.518;2023-04-25T00:45:12;4.45;;;1.00;;
10056;SDS011;5068;51.286;7.518;2023-04-25T00:46:47;2.85;;;1.17;;
10056;SDS011;5068;51.286;7.518;2023-04-25T00:48:20;3.13;;;1.10;;
10056;SDS011;5068;51.286;7.518;2023-04-25T00:49:54;2.45;;;1.10;;
10056;SDS011;5068;51.286;7.518;2023-04-25T00:51:27;2.30;;;1.27;;
10056;SDS011;5068;51.286;7.518;2023-04-25T00:53:03;3.67;;;1.38;;
10056;SDS011;5068;51.286;7.518;2023-04-25T00:54:36;2.35;;;1.50;;
10056;SDS011;5068;51.286;7.518;2023-04-25T00:56:10;3.85;;;1.75;;
10056;SDS011;5068;51.286;7.518;2023-04-25T00:57:43;2.72;;;1.67;;
10056;SDS011;5068;51.286;7.518;2023-04-25T00:59:16;3.10;;;1.30;;
10056;SDS011;5068;51.286;7.518;2023-04-25T01:00:52;3.03;;;1.40;;
10056;SDS011;5068;51.286;7.518;2023-04-25T01:02:25;2.67;;;1.17;;
10056;SDS011;5068;51.286;7.518;2023-04-25T01:04:00;3.85;;;1.20;;
10056;SDS011;5068;51.286;7.518;2023-04-25T01:05:34;3.47;;;1.17;;
10056;SDS011;5068;51.286;7.518;2023-04-25T01:07:07;4.35;;;1.42;;
10056;SDS011;5068;51.286;7.518;2023-04-25T01:08:41;4.05;;;1.33;;
10056;SDS011;5068;51.286;7.518;2023-04-25T01:10:15;3.38;;;1.10;;
10056;SDS011;5068;51.286;7.518;2023-04-25T01:11:48;4.50;;;1.60;;
10056;SDS011;5068;51.286;7.518;2023-04-25T01:13:22;5.63;;;1.60;;
10056;SDS011;5068;51.286;7.518;2023-04-25T01:14:55;3.75;;;1.38;;
10056;SDS011;5068;51.286;7.518;2023-04-25T01:16:29;5.55;;;1.60;;
10056;SDS011;5068;51.286;7.518;2023-04-25T01:18:05;3.78;;;1.48;;
10056;SDS011;5068;51.286;7.518;2023-04-25T01:19:39;3.75;;;1.77;;
10056;SDS011;5068;51.286;7.518;2023-04-25T01:21:13;3.70;;;1.63;;
10056;SDS011;5068;51.286;7.518;2023-04-25T01:22:46;7.85;;;2.00;;
10056;SDS011;5068;51.286;7.518;2023-04-25T01:24:20;5.28;;;1.70;;
10056;SDS011;5068;51.286;7.518;2023-04-25T01:25:54;3.40;;;1.25;;
10056;SDS011;5068;51.286;7.518;2023-04-25T01:27:28;5.72;;;1.48;;
10056;SDS011;5068;51.286;7.518;2023-04-25T01:29:03;2.78;;;1.42;;
10056;SDS011;5068;51.286;7.518;2023-04-25T01:30:37;3.97;;;1.35;;
10056;SDS011;5068;51.286;7.518;2023-04-25T01:32:11;2.60;;;1.40;;
10056;SDS011;5068;51.286;7.518;2023-04-25T01:35:21;4.20;;;1.50;;
10056;SDS011;5068;51.286;7.518;2023-04-25T01:37:00;3.30;;;1.40;;
10056;SDS011;5068;51.286;7.518;2023-04-25T01:38:33;3.22;;;1.52;;
10056;SDS011;5068;51.286;7.518;2023-04-25T01:40:07;3.28;;;1.60;;
10056;SDS011;5068;51.286;7.518;2023-04-25T01:41:42;4.50;;;1.80;;
10056;SDS011;5068;51.286;7.518;2023-04-25T01:43:16;2.75;;;1.48;;
10056;SDS011;5068;51.286;7.518;2023-04-25T01:44:49;3.72;;;1.58;;
10056;SDS011;5068;51.286;7.518;2023-04-25T01:46:21;4.22;;;1.73;;
10056;SDS011;5068;51.286;7.518;2023-04-25T01:47:55;2.50;;;1.27;;
10056;SDS011;5068;51.286;7.518;2023-04-25T01:49:30;3.10;;;1.88;;
10056;SDS011;5068;51.286;7.518;2023-04-25T01:51:04;3.10;;;1.50;;
10056;SDS011;5068;51.286;7.518;2023-04-25T01:52:38;2.78;;;1.50;;
10056;SDS011;5068;51.286;7.518;2023-04-25T01:54:12;3.92;;;1.73;;
10056;SDS011;5068;51.286;7.518;2023-04-25T01:55:46;3.88;;;1.70;;
10056;SDS011;5068;51.286;7.518;2023-04-25T01:57:22;4.50;;;1.92;;
10056;SDS011;5068;51.286;7.518;2023-04-25T01:58:55;4.80;;;2.00;;
10056;SDS011;5068;51.286;7.518;2023-04-25T02:00:49;4.53;;;1.88;;
10056;SDS011;5068;51.286;7.518;2023-04-25T02:02:22;3.25;;;2.08;;
10056;SDS011;5068;51.286;7.518;2023-04-25T02:03:55;5.00;;;2.22;;
10056;SDS011;5068;51.286;7.518;2023-04-25T02:05:35;4.22;;;2.65;;
10056;SDS011;5068;51.286;7.518;2023-04-25T02:07:11;4.28;;;2.95;;
10056;SDS011;5068;51.286;7.518;2023-04-25T02:08:55;5.65;;;3.40;;
10056;SDS011;5068;51.286;7.518;2023-04-25T02:10:28;5.00;;;2.80;;
10056;SDS011;5068;51.286;7.518;2023-04-25T02:12:13;6.95;;;2.90;;
10056;SDS011;5068;51.286;7.518;2023-04-25T02:14:09;9.68;;;2.95;;
10056;SDS011;5068;51.286;7.518;2023-04-25T02:16:03;5.38;;;3.20;;
10056;SDS011;5068;51.286;7.518;2023-04-25T02:17:36;6.45;;;3.45;;
10056;SDS011;5068;51.286;7.518;2023-04-25T02:19:10;5.80;;;3.78;;
10056;SDS011;5068;51.286;7.518;2023-04-25T02:20:44;8.10;;;3.80;;
10056;SDS011;5068;51.286;7.518;2023-04-25T02:22:18;6.35;;;3.33;;
10056;SDS011;5068;51.286;7.518;2023-04-25T02:23:51;6.63;;;3.75;;
10056;SDS011;5068;51.286;7.518;2023-04-25T02:25:26;6.93;;;3.35;;
10056;SDS011;5068;51.286;7.518;2023-04-25T02:28:33;5.63;;;3.13;;
10056;SDS011;5068;51.286;7.518;2023-04-25T02:30:08;6.03;;;3.70;;
10056;SDS011;5068;51.286;7.518;2023-04-25T02:31:42;10.63;;;4.13;;
10056;SDS011;5068;51.286;7.518;2023-04-25T02:33:16;8.73;;;4.22;;
10056;SDS011;5068;51.286;7.518;2023-04-25T02:34:49;6.88;;;3.65;;
10056;SDS011;5068;51.286;7.518;2023-04-25T02:36:23;6.60;;;3.92;;
10056;SDS011;5068;51.286;7.518;2023-04-25T02:37:57;7.70;;;4.03;;
10056;SDS011;5068;51.286;7.518;2023-04-25T02:39:31;5.85;;;3.60;;
10056;SDS011;5068;51.286;7.518;2023-04-25T02:41:05;5.68;;;3.83;;
10056;SDS011;5068;51.286;7.518;2023-04-25T02:42:38;8.02;;;3.78;;
10056;SDS011;5068;51.286;7.518;2023-04-25T02:44:11;7.90;;;4.53;;
10056;SDS011;5068;51.286;7.518;2023-04-25T02:45:45;8.73;;;4.20;;
10056;SDS011;5068;51.286;7.518;2023-04-25T02:47:18;8.27;;;5.13;;
10056;SDS011;5068;51.286;7.518;2023-04-25T02:48:53;10.27;;;4.55;;
10056;SDS011;5068;51.286;7.518;2023-04-25T02:50:27;10.05;;;4.63;;
10056;SDS011;5068;51.286;7.518;2023-04-25T02:52:00;9.98;;;5.13;;
10056;SDS011;5068;51.286;7.518;2023-04-25T02:53:33;8.88;;;4.55;;
10056;SDS011;5068;51.286;7.518;2023-04-25T02:55:07;9.02;;;5.30;;
10056;SDS011;5068;51.286;7.518;2023-04-25T02:56:43;9.82;;;4.85;;
10056;SDS011;5068;51.286;7.518;2023-04-25T02:58:21;7.57;;;4.30;;
10056;SDS011;5068;51.286;7.518;2023-04-25T02:59:56;9.85;;;4.55;;
10056;SDS011;5068;51.286;7.518;2023-04-25T03:01:29;8.75;;;4.72;;
10056;SDS011;5068;51.286;7.518;2023-04-25T03:03:03;8.70;;;4.55;;
10056;SDS011;5068;51.286;7.518;2023-04-25T03:04:36;9.48;;;5.20;;
10056;SDS011;5068;51.286;7.518;2023-04-25T03:06:10;7.80;;;4.95;;
10056;SDS011;5068;51.286;7.518;2023-04-25T03:07:43;11.52;;;5.13;;
10056;SDS011;5068;51.286;7.518;2023-04-25T03:09:17;9.57;;;5.70;;
10056;SDS011;5068;51.286;7.518;2023-04-25T03:10:50;8.95;;;5.00;;
10056;SDS011;5068;51.286;7.518;2023-04-25T03:12:28;9.65;;;4.97;;
10056;SDS011;5068;51.286;7.518;2023-04-25T03:14:01;10.57;;;5.55;;
10056;SDS011;5068;51.286;7.518;2023-04-25T03:15:35;9.60;;;5.20;;
10056;SDS011;5068;51.286;7.518;2023-04-25T03:17:08;8.77;;;5.18;;
10056;SDS011;5068;51.286;7.518;2023-04-25T03:18:41;9.65;;;5.35;;
10056;SDS011;5068;51.286;7.518;2023-04-25T03:20:14;7.80;;;5.05;;
10056;SDS011;5068;51.286;7.518;2023-04-25T03:21:48;8.48;;;5.00;;
10056;SDS011;5068;51.286;7.518;2023-04-25T03:23:20;10.07;;;5.53;;
10056;SDS011;5068;51.286;7.518;2023-04-25T03:24:54;10.75;;;5.35;;
10056;SDS011;5068;51.286;7.518;2023-04-25T03:26:27;7.20;;;4.88;;
10056;SDS011;5068;51.286;7.518;2023-04-25T03:28:02;7.70;;;5.18;;
10056;SDS011;5068;51.286;7.518;2023-04-25T03:29:36;8.73;;;4.95;;
10056;SDS011;5068;51.286;7.518;2023-04-25T03:31:10;9.23;;;5.00;;
10056;SDS011;5068;51.286;7.518;2023-04-25T03:32:43;9.23;;;5.25;;
10056;SDS011;5068;51.286;7.518;2023-04-25T03:34:21;10.15;;;4.88;;
10056;SDS011;5068;51.286;7.518;2023-04-25T03:37:29;8.23;;;4.53;;
10056;SDS011;5068;51.286;7.518;2023-04-25T03:39:02;7.90;;;4.70;;
10056;SDS011;5068;51.286;7.518;2023-04-25T03:40:36;8.43;;;4.78;;
10056;SDS011;5068;51.286;7.518;2023-04-25T03:42:18;8.10;;;5.28;;
10056;SDS011;5068;51.286;7.518;2023-04-25T03:43:55;8.40;;;5.20;;
10056;SDS011;5068;51.286;7.518;2023-04-25T03:45:28;8.18;;;5.00;;
10056;SDS011;5068;51.286;7.518;2023-04-25T03:47:02;8.32;;;4.90;;
10056;SDS011;5068;51.286;7.518;2023-04-25T03:48:35;9.82;;;4.95;;
10056;SDS011;5068;51.286;7.518;2023-04-25T03:50:09;8.73;;;4.78;;
10056;SDS011;5068;51.286;7.518;2023-04-25T03:51:42;9.68;;;5.32;;
10056;SDS011;5068;51.286;7.518;2023-04-25T03:53:15;6.50;;;4.43;;
10056;SDS011;5068;51.286;7.518;2023-04-25T03:55:08;8.10;;;4.47;;
10056;SDS011;5068;51.286;7.518;2023-04-25T03:56:43;8.73;;;4.82;;
10056;SDS011;5068;51.286;7.518;2023-04-25T03:58:22;7.35;;;4.82;;
10056;SDS011;5068;51.286;7.518;2023-04-25T03:59:57;9.10;;;4.80;;
10056;SDS011;5068;51.286;7.518;2023-04-25T04:01:32;9.02;;;4.22;;
10056;SDS011;5068;51.286;7.518;2023-04-25T04:03:06;7.97;;;3.63;;
10056;SDS011;5068;51.286;7.518;2023-04-25T04:04:40;5.07;;;3.22;;
10056;SDS011;5068;51.286;7.518;2023-04-25T04:06:16;5.07;;;3.45;;
10056;SDS011;5068;51.286;7.518;2023-04-25T04:07:53;6.50;;;4.03;;
10056;SDS011;5068;51.286;7.518;2023-04-25T04:09:27;7.00;;;3.85;;
10056;SDS011;5068;51.286;7.518;2023-04-25T04:11:02;5.93;;;3.92;;
10056;SDS011;5068;51.286;7.518;2023-04-25T04:12:37;5.80;;;3.13;;
10056;SDS011;5068;51.286;7.518;2023-04-25T04:14:10;4.65;;;2.90;;
10056;SDS011;5068;51.286;7.518;2023-04-25T04:15:49;7.30;;;3.63;;
10056;SDS011;5068;51.286;7.518;2023-04-25T04:17:22;6.05;;;2.80;;
10056;SDS011;5068;51.286;7.518;2023-04-25T04:18:56;6.78;;;3.08;;
10056;SDS011;5068;51.286;7.518;2023-04-25T04:20:29;5.38;;;3.05;;
10056;SDS011;5068;51.286;7.518;2023-04-25T04:22:03;5.45;;;2.75;;
10056;SDS011;5068;51.286;7.518;2023-04-25T04:23:36;6.05;;;2.92;;
10056;SDS011;5068;51.286;7.518;2023-04-25T04:25:11;5.20;;;2.63;;
10056;SDS011;5068;51.286;7.518;2023-04-25T04:27:07;3.63;;;2.55;;
10056;SDS011;5068;51.286;7.518;2023-04-25T04:28:48;4.90;;;2.60;;
10056;SDS011;5068;51.286;7.518;2023-04-25T04:30:41;4.72;;;2.63;;
10056;SDS011;5068;51.286;7.518;2023-04-25T04:32:18;3.97;;;2.50;;
10056;SDS011;5068;51.286;7.518;2023-04-25T04:33:51;3.50;;;2.33;;
10056;SDS011;5068;51.286;7.518;2023-04-25T04:35:24;4.95;;;2.55;;
10056;SDS011;5068;51.286;7.518;2023-04-25T04:36:57;5.35;;;3.13;;
10056;SDS011;5068;51.286;7.518;2023-04-25T04:38:31;4.32;;;2.17;;
10056;SDS011;5068;51.286;7.518;2023-04-25T04:40:07;5.40;;;2.45;;
10056;SDS011;5068;51.286;7.518;2023-04-25T04:41:47;4.97;;;2.70;;
10056;SDS011;5068;51.286;7.518;2023-04-25T04:43:42;5.28;;;2.60;;
10056;SDS011;5068;51.286;7.518;2023-04-25T04:45:32;3.70;;;2.50;;
10056;SDS011;5068;51.286;7.518;2023-04-25T04:47:27;3.80;;;2.33;;
10056;SDS011;5068;51.286;7.518;2023-04-25T04:49:40;3.60;;;2.60;;
10056;SDS011;5068;51.286;7.518;2023-04-25T04:51:46;4.97;;;2.33;;
10056;SDS011;5068;51.286;7.518;2023-04-25T04:53:38;4.95;;;2.15;;
10056;SDS011;5068;51.286;7.518;2023-04-25T04:55:47;4.38;;;2.65;;
10056;SDS011;5068;51.286;7.518;2023-04-25T04:57:32;3.60;;;2.83;;
10056;SDS011;5068;51.286;7.518;2023-04-25T04:59:18;4.85;;;3.22;;
10056;SDS011;5068;51.286;7.518;2023-04-25T05:01:04;6.18;;;3.03;;
10056;SDS011;5068;51.286;7.518;2023-04-25T05:02:58;5.35;;;2.58;;
10056;SDS011;5068;51.286;7.518;2023-04-25T05:04:58;5.30;;;2.50;;
10056;SDS011;5068;51.286;7.518;2023-04-25T05:06:54;3.50;;;2.70;;
10056;SDS011;5068;51.286;7.518;2023-04-25T05:08:48;5.65;;;3.28;;
10056;SDS011;5068;51.286;7.518;2023-04-25T05:10:48;6.78;;;3.33;;
10056;SDS011;5068;51.286;7.518;2023-04-25T05:12:37;5.50;;;2.92;;
10056;SDS011;5068;51.286;7.518;2023-04-25T05:14:28;6.18;;;3.03;;
10056;SDS011;5068;51.286;7.518;2023-04-25T05:16:13;7.22;;;3.38;;
10056;SDS011;5068;51.286;7.518;2023-04-25T05:18:20;5.57;;;3.17;;
10056;SDS011;5068;51.286;7.518;2023-04-25T05:20:29;7.78;;;3.50;;
10056;SDS011;5068;51.286;7.518;2023-04-25T05:22:27;8.52;;;3.92;;
10056;SDS011;5068;51.286;7.518;2023-04-25T05:24:16;5.50;;;3.40;;
10056;SDS011;5068;51.286;7.518;2023-04-25T05:26:10;7.18;;;2.92;;
10056;SDS011;5068;51.286;7.518;2023-04-25T05:28:17;7.57;;;3.58;;
10056;SDS011;5068;51.286;7.518;2023-04-25T05:30:08;7.05;;;2.92;;
10056;SDS011;5068;51.286;7.518;2023-04-25T05:32:11;4.82;;;2.55;;
10056;SDS011;5068;51.286;7.518;2023-04-25T05:33:46;6.07;;;2.55;;
10056;SDS011;5068;51.286;7.518;2023-04-25T05:35:19;8.95;;;2.60;;
10056;SDS011;5068;51.286;7.518;2023-04-25T05:36:54;5.50;;;2.00;;
10056;SDS011;5068;51.286;7.518;2023-04-25T05:38:28;3.60;;;2.03;;
10056;SDS011;5068;51.286;7.518;2023-04-25T05:40:40;4.15;;;1.63;;
10056;SDS011;5068;51.286;7.518;2023-04-25T05:42:24;4.55;;;2.30;;
10056;SDS011;5068;51.286;7.518;2023-04-25T05:44:11;6.82;;;1.98;;
10056;SDS011;5068;51.286;7.518;2023-04-25T05:46:18;6.95;;;1.92;;
10056;SDS011;5068;51.286;7.518;2023-04-25T05:48:10;3.88;;;1.50;;
10056;SDS011;5068;51.286;7.518;2023-04-25T05:50:14;7.32;;;1.67;;
10056;SDS011;5068;51.286;7.518;2023-04-25T05:51:55;5.28;;;1.70;;
10056;SDS011;5068;51.286;7.518;2023-04-25T05:53:51;4.63;;;1.40;;
10056;SDS011;5068;51.286;7.518;2023-04-25T05:55:24;5.35;;;1.48;;
10056;SDS011;5068;51.286;7.518;2023-04-25T05:56:59;6.40;;;1.73;;
10056;SDS011;5068;51.286;7.518;2023-04-25T06:00:08;4.35;;;0.95;;
10056;SDS011;5068;51.286;7.518;2023-04-25T06:01:45;4.68;;;1.20;;
10056;SDS011;5068;51.286;7.518;2023-04-25T06:03:19;5.72;;;1.48;;
10056;SDS011;5068;51.286;7.518;2023-04-25T06:04:53;3.45;;;1.08;;
10056;SDS011;5068;51.286;7.518;2023-04-25T06:06:28;3.60;;;1.70;;
10056;SDS011;5068;51.286;7.518;2023-04-25T06:08:03;7.55;;;1.75;;
10056;SDS011;5068;51.286;7.518;2023-04-25T06:09:36;4.13;;;1.60;;
10056;SDS011;5068;51.286;7.518;2023-04-25T06:11:11;4.53;;;1.40;;
10056;SDS011;5068;51.286;7.518;2023-04-25T06:12:44;4.63;;;1.50;;
10056;SDS011;5068;51.286;7.518;2023-04-25T06:14:19;5.70;;;1.63;;
10056;SDS011;5068;51.286;7.518;2023-04-25T06:15:54;5.18;;;1.60;;
10056;SDS011;5068;51.286;7.518;2023-04-25T06:17:27;4.65;;;1.33;;
10056;SDS011;5068;51.286;7.518;2023-04-25T06:19:00;4.28;;;1.50;;
10056;SDS011;5068;51.286;7.518;2023-04-25T06:20:33;4.75;;;1.42;;
10056;SDS011;5068;51.286;7.518;2023-04-25T06:22:08;3.88;;;1.42;;
10056;SDS011;5068;51.286;7.518;2023-04-25T06:23:44;4.70;;;1.42;;
10056;SDS011;5068;51.286;7.518;2023-04-25T06:25:23;3.05;;;1.60;;
10056;SDS011;5068;51.286;7.518;2023-04-25T06:26:57;5.85;;;1.20;;
10056;SDS011;5068;51.286;7.518;2023-04-25T06:28:31;6.30;;;1.73;;
10056;SDS011;5068;51.286;7.518;2023-04-25T06:30:05;6.97;;;1.70;;
10056;SDS011;5068;51.286;7.518;2023-04-25T06:31:39;6.68;;;2.58;;
10056;SDS011;5068;51.286;7.518;2023-04-25T06:33:13;6.25;;;1.50;;
10056;SDS011;5068;51.286;7.518;2023-04-25T06:34:46;7.00;;;1.85;;
10056;SDS011;5068;51.286;7.518;2023-04-25T06:36:20;5.45;;;2.15;;
10056;SDS011;5068;51.286;7.518;2023-04-25T06:38:00;5.15;;;1.80;;
10056;SDS011;5068;51.286;7.518;2023-04-25T06:39:34;4.45;;;1.60;;
10056;SDS011;5068;51.286;7.518;2023-04-25T06:41:11;5.90;;;2.30;;
10056;SDS011;5068;51.286;7.518;2023-04-25T06:42:45;6.57;;;2.25;;
10056;SDS011;5068;51.286;7.518;2023-04-25T06:44:41;6.78;;;2.85;;
10056;SDS011;5068;51.286;7.518;2023-04-25T06:46:17;7.72;;;2.22;;
10056;SDS011;5068;51.286;7.518;2023-04-25T06:47:52;7.55;;;3.00;;
10056;SDS011;5068;51.286;7.518;2023-04-25T06:49:26;8.55;;;3.35;;
10056;SDS011;5068;51.286;7.518;2023-04-25T06:50:59;6.45;;;3.03;;
10056;SDS011;5068;51.286;7.518;2023-04-25T06:52:32;6.28;;;3.03;;
10056;SDS011;5068;51.286;7.518;2023-04-25T06:54:07;6.40;;;3.13;;
10056;SDS011;5068;51.286;7.518;2023-04-25T06:55:48;10.70;;;3.58;;
10056;SDS011;5068;51.286;7.518;2023-04-25T06:57:24;7.50;;;2.67;;
10056;SDS011;5068;51.286;7.518;2023-04-25T06:58:59;6.70;;;2.83;;
10056;SDS011;5068;51.286;7.518;2023-04-25T07:00:36;8.40;;;2.53;;
10056;SDS011;5068;51.286;7.518;2023-04-25T07:02:09;9.02;;;2.60;;
10056;SDS011;5068;51.286;7.518;2023-04-25T07:03:43;3.38;;;2.00;;
10056;SDS011;5068;51.286;7.518;2023-04-25T07:05:21;9.75;;;3.15;;
10056;SDS011;5068;51.286;7.518;2023-04-25T07:06:54;7.50;;;2.53;;
10056;SDS011;5068;51.286;7.518;2023-04-25T07:08:37;9.18;;;2.60;;
10056;SDS011;5068;51.286;7.518;2023-04-25T07:10:12;7.78;;;2.78;;
10056;SDS011;5068;51.286;7.518;2023-04-25T07:11:45;5.68;;;2.08;;
10056;SDS011;5068;51.286;7.518;2023-04-25T07:13:18;4.88;;;2.00;;
10056;SDS011;5068;51.286;7.518;2023-04-25T07:14:52;6.03;;;2.30;;
10056;SDS011;5068;51.286;7.518;2023-04-25T07:16:25;8.57;;;2.65;;
10056;SDS011;5068;51.286;7.518;2023-04-25T07:17:59;5.30;;;2.10;;
10056;SDS011;5068;51.286;7.518;2023-04-25T07:19:32;10.40;;;2.58;;
10056;SDS011;5068;51.286;7.518;2023-04-25T07:21:06;8.73;;;2.30;;
10056;SDS011;5068;51.286;7.518;2023-04-25T07:22:41;5.90;;;1.88;;
10056;SDS011;5068;51.286;7.518;2023-04-25T07:24:14;7.15;;;2.33;;
10056;SDS011;5068;51.286;7.518;2023-04-25T07:25:51;9.40;;;2.38;;
10056;SDS011;5068;51.286;7.518;2023-04-25T07:27:28;11.50;;;2.63;;
10056;SDS011;5068;51.286;7.518;2023-04-25T07:29:27;7.95;;;2.28;;
10056;SDS011;5068;51.286;7.518;2023-04-25T07:31:03;8.82;;;2.38;;
10056;SDS011;5068;51.286;7.518;2023-04-25T07:32:36;4.20;;;2.20;;
10056;SDS011;5068;51.286;7.518;2023-04-25T07:34:11;11.15;;;2.83;;
10056;SDS011;5068;51.286;7.518;2023-04-25T07:35:54;6.76;;;2.73;;
10056;SDS011;5068;51.286;7.518;2023-04-25T07:37:32;4.54;;;2.11;;
10056;SDS011;5068;51.286;7.518;2023-04-25T07:39:18;4.18;;;2.38;;
10056;SDS011;5068;51.286;7.518;2023-04-25T07:40:53;3.90;;;1.90;;
10056;SDS011;5068;51.286;7.518;2023-04-25T07:42:26;7.25;;;1.85;;
10056;SDS011;5068;51.286;7.518;2023-04-25T07:44:00;7.18;;;2.63;;
10056;SDS011;5068;51.286;7.518;2023-04-25T07:45:35;7.18;;;2.03;;
10056;SDS011;5068;51.286;7.518;2023-04-25T07:47:09;6.30;;;2.10;;
10056;SDS011;5068;51.286;7.518;2023-04-25T07:48:42;5.15;;;2.13;;
10056;SDS011;5068;51.286;7.518;2023-04-25T07:50:16;6.95;;;2.33;;
10056;SDS011;5068;51.286;7.518;2023-04-25T07:51:51;4.45;;;2.03;;
10056;SDS011;5068;51.286;7.518;2023-04-25T07:53:25;4.32;;;2.50;;
10056;SDS011;5068;51.286;7.518;2023-04-25T07:55:03;6.80;;;2.08;;
10056;SDS011;5068;51.286;7.518;2023-04-25T07:56:48;7.10;;;2.00;;
10056;SDS011;5068;51.286;7.518;2023-04-25T07:58:27;6.88;;;1.90;;
10056;SDS011;5068;51.286;7.518;2023-04-25T08:00:04;5.18;;;1.98;;
10056;SDS011;5068;51.286;7.518;2023-04-25T08:01:44;5.90;;;1.80;;
10056;SDS011;5068;51.286;7.518;2023-04-25T08:03:17;7.82;;;2.60;;
10056;SDS011;5068;51.286;7.518;2023-04-25T08:04:51;6.97;;;2.30;;
10056;SDS011;5068;51.286;7.518;2023-04-25T08:06:25;7.22;;;2.17;;
10056;SDS011;5068;51.286;7.518;2023-04-25T08:08:10;3.63;;;2.10;;
10056;SDS011;5068;51.286;7.518;2023-04-25T08:09:43;11.57;;;3.20;;
10056;SDS011;5068;51.286;7.518;2023-04-25T08:11:25;5.75;;;2.25;;
10056;SDS011;5068;51.286;7.518;2023-04-25T08:13:00;7.20;;;2.65;;
10056;SDS011;5068;51.286;7.518;2023-04-25T08:14:34;6.43;;;2.00;;
10056;SDS011;5068;51.286;7.518;2023-04-25T08:16:09;4.28;;;2.10;;
10056;SDS011;5068;51.286;7.518;2023-04-25T08:17:42;5.78;;;1.80;;
10056;SDS011;5068;51.286;7.518;2023-04-25T08:19:17;4.03;;;1.58;;
10056;SDS011;5068;51.286;7.518;2023-04-25T08:20:51;4.68;;;1.63;;
10056;SDS011;5068;51.286;7.518;2023-04-25T08:22:24;8.52;;;2.08;;
10056;SDS011;5068;51.286;7.518;2023-04-25T08:24:11;5.30;;;1.55;;
10056;SDS011;5068;51.286;7.518;2023-04-25T08:25:45;7.13;;;1.80;;
10056;SDS011;5068;51.286;7.518;2023-04-25T08:27:20;4.05;;;1.70;;
10056;SDS011;5068;51.286;7.518;2023-04-25T08:28:56;6.97;;;2.25;;
10056;SDS011;5068;51.286;7.518;2023-04-25T08:30:29;6.47;;;1.83;;
10056;SDS011;5068;51.286;7.518;2023-04-25T08:32:03;7.45;;;1.90;;
10056;SDS011;5068;51.286;7.518;2023-04-25T08:33:38;5.60;;;1.30;;
10056;SDS011;5068;51.286;7.518;2023-04-25T08:35:28;5.80;;;1.63;;
10056;SDS011;5068;51.286;7.518;2023-04-25T08:37:02;7.25;;;2.00;;
10056;SDS011;5068;51.286;7.518;2023-04-25T08:38:49;10.85;;;2.85;;
10056;SDS011;5068;51.286;7.518;2023-04-25T08:40:26;5.30;;;1.70;;
10056;SDS011;5068;51.286;7.518;2023-04-25T08:42:11;5.90;;;2.53;;
10056;SDS011;5068;51.286;7.518;2023-04-25T08:43:45;4.70;;;2.30;;
10056;SDS011;5068;51.286;7.518;2023-04-25T08:45:24;5.25;;;1.92;;
10056;SDS011;5068;51.286;7.518;2023-04-25T08:47:00;8.18;;;2.00;;
10056;SDS011;5068;51.286;7.518;2023-04-25T08:48:42;6.57;;;2.00;;
10056;SDS011;5068;51.286;7.518;2023-04-25T08:50:21;6.47;;;1.90;;
10056;SDS011;5068;51.286;7.518;2023-04-25T08:51:58;7.22;;;2.38;;
10056;SDS011;5068;51.286;7.518;2023-04-25T08:53:34;5.70;;;1.40;;
10056;SDS011;5068;51.286;7.518;2023-04-25T08:55:09;5.32;;;1.80;;
10056;SDS011;5068;51.286;7.518;2023-04-25T08:56:45;5.63;;;2.03;;
10056;SDS011;5068;51.286;7.518;2023-04-25T08:58:20;5.32;;;1.90;;
10056;SDS011;5068;51.286;7.518;2023-04-25T08:59:54;5.00;;;1.60;;
10056;SDS011;5068;51.286;7.518;2023-04-25T09:01:31;5.85;;;2.05;;
10056;SDS011;5068;51.286;7.518;2023-04-25T09:03:05;7.72;;;1.73;;
10056;SDS011;5068;51.286;7.518;2023-04-25T09:04:38;5.78;;;1.92;;
10056;SDS011;5068;51.286;7.518;2023-04-25T09:06:12;5.28;;;1.30;;
10056;SDS011;5068;51.286;7.518;2023-04-25T09:07:47;6.07;;;1.30;;
10056;SDS011;5068;51.286;7.518;2023-04-25T09:09:21;6.38;;;1.50;;
10056;SDS011;5068;51.286;7.518;2023-04-25T09:12:29;3.90;;;1.20;;
10056;SDS011;5068;51.286;7.518;2023-04-25T09:14:10;4.60;;;1.70;;
10056;SDS011;5068;51.286;7.518;2023-04-25T09:16:02;4.00;;;1.50;;
10056;SDS011;5068;51.286;7.518;2023-04-25T09:17:58;4.65;;;1.33;;
10056;SDS011;5068;51.286;7.518;2023-04-25T09:19:37;5.80;;;1.05;;
10056;SDS011;5068;51.286;7.518;2023-04-25T09:21:24;7.55;;;1.52;;
10056;SDS011;5068;51.286;7.518;2023-04-25T09:23:01;5.88;;;1.42;;
10056;SDS011;5068;51.286;7.518;2023-04-25T09:24:37;4.57;;;1.27;;
10056;SDS011;5068;51.286;7.518;2023-04-25T09:26:13;5.47;;;1.40;;
10056;SDS011;5068;51.286;7.518;2023-04-25T09:27:50;4.72;;;1.45;;
10056;SDS011;5068;51.286;7.518;2023-04-25T09:29:33;4.13;;;1.40;;
10056;SDS011;5068;51.286;7.518;2023-04-25T09:31:09;5.32;;;1.52;;
10056;SDS011;5068;51.286;7.518;2023-04-25T09:32:48;7.35;;;1.27;;
10056;SDS011;5068;51.286;7.518;2023-04-25T09:34:23;4.95;;;1.10;;
10056;SDS011;5068;51.286;7.518;2023-04-25T09:36:01;3.05;;;1.27;;
10056;SDS011;5068;51.286;7.518;2023-04-25T09:37:50;2.22;;;1.20;;
10056;SDS011;5068;51.286;7.518;2023-04-25T09:39:56;3.60;;;1.00;;
10056;SDS011;5068;51.286;7.518;2023-04-25T09:41:33;3.47;;;1.23;;
10056;SDS011;5068;51.286;7.518;2023-04-25T09:43:18;3.03;;;1.65;;
10056;SDS011;5068;51.286;7.518;2023-04-25T09:44:54;3.97;;;1.50;;
10056;SDS011;5068;51.286;7.518;2023-04-25T09:48:08;4.25;;;1.05;;
10056;SDS011;5068;51.286;7.518;2023-04-25T09:49:48;6.20;;;1.20;;
10056;SDS011;5068;51.286;7.518;2023-04-25T09:51:25;2.67;;;1.15;;
10056;SDS011;5068;51.286;7.518;2023-04-25T09:53:04;4.03;;;1.52;;
10056;SDS011;5068;51.286;7.518;2023-04-25T09:54:54;2.70;;;1.00;;
10056;SDS011;5068;51.286;7.518;2023-04-25T09:56:35;3.60;;;0.73;;
10056;SDS011;5068;51.286;7.518;2023-04-25T09:58:11;4.10;;;0.82;;
10056;SDS011;5068;51.286;7.518;2023-04-25T09:59:48;3.22;;;0.98;;
10056;SDS011;5068;51.286;7.518;2023-04-25T10:01:23;3.75;;;1.00;;
10056;SDS011;5068;51.286;7.518;2023-04-25T10:03:14;6.15;;;1.10;;
10056;SDS011;5068;51.286;7.518;2023-04-25T10:05:11;3.45;;;1.15;;
10056;SDS011;5068;51.286;7.518;2023-04-25T10:06:45;3.92;;;0.90;;
10056;SDS011;5068;51.286;7.518;2023-04-25T10:08:22;5.00;;;1.00;;